Caseyville, IL (62232)

08:10 CDT le 24 mai 2015 (GMT -0500)
Tim and Carolyns yard | | Change Station
CLOSE
Current Station
Stations météorologiques personnelles
Location: COLLINSVILLE, IL
Altitude: 522 ft
Stations météo à proximité

Alt. 522 ft 38.66 °N, 89.99 °W | Updated 13 seconds ago

Partiellement nuageux
Partiellement nuageux
75.1 ° F
Paraît 77 ° F
N
4.5
Vent Variable Vent de SE
Gusts 5.6 mph

Aujourd'hui
Haut(e) -- | Bas -- ° F
--% Risque de précip.
Hier
Haut(e) -- | Bas -- ° F
Precip. -- pouce
5:41 AM 8:12 PM
Lune montante, 39% visible
Pression 30.08 pouce
Visibilité 10.0 Miles terrestres
Nuages Nuageux 5500 ft
Nuageux 7000 ft
indice de chaleur 77 ° F
Point de rosée 61 ° F
Humidité 61%
Précipitations 0.00 pouce
Profondeur de la couche neigeuse Non disponible.
UV 1 sur 12
Pollen 6.60 sur 12
Qualité de l'air Non disponible.
Flu Activity Sporadic
METAR KCPS 241253Z 14011KT 10SM BKN055 BKN070 21/14 A3009 RMK AO2 SLP185 T02110144

More Conditions Fewer Conditions

Pression 30.08 pouce
Visibilité 10.0 Miles terrestres
Nuages Nuageux 5500 ft
Nuageux 7000 ft
indice de chaleur 77 ° F
Point de rosée 61 ° F
Humidité 61%
Précipitations 0.00 pouce
Profondeur de la couche neigeuse Non disponible.
UV 1 sur 12
Pollen 6.60 sur 12
Qualité de l'air Non disponible.
Flu Activity Sporadic
METAR KCPS 241253Z 14011KT 10SM BKN055 BKN070 21/14 A3009 RMK AO2 SLP185 T02110144

More Conditions Fewer Conditions

10-Day Weather Forecast

Almanac

Astronomie

May. 24, 2015 Lever Coucher
Temps réel
Crépuscule civil
Crépuscule nautique
Crépuscule astronomique
Lune
Durée de lumière visible
Longueur du jour
Tomorrow will be .
, % of the Moon is Illuminated

Extrêmes aujourd'hui

State Highs State Lows

Community

WunderPhotos

Upload Photos

1,823,734 Photos téléchargées !

WunderBlogs® & News

Nearby

Qualité de l'air

  Qualité de l'air Indice de la qualité de l'air Polluant
Not available.

Épaisseur de neige

Station Depth Altitude

Activité sismique

Ville Distance Mag. Time & Date
Minimum magnitude displayed is 2.5.

Températures des eaux côtières

Lieu Température

Stations

Stations météo à proximité

Emplacement de la station Température Refroidissement éolien Point de rosée Humidité Vent Precip. Alt. Mise à jour Type